createdAt,value
2018-06-15T00:00:21.090Z,980.4
2018-06-15T00:01:22.244Z,980.4
2018-06-15T00:02:23.384Z,980.4
2018-06-15T00:03:24.669Z,980.4
2018-06-15T00:04:25.859Z,980.4
2018-06-15T00:05:27.048Z,980.3
2018-06-15T00:06:28.309Z,980.3
2018-06-15T00:07:29.555Z,980.4
2018-06-15T00:08:30.728Z,980.4
2018-06-15T00:09:31.860Z,980.3
2018-06-15T00:10:32.991Z,980.4
2018-06-15T00:11:34.211Z,980.4
2018-06-15T00:12:35.345Z,980.4
2018-06-15T00:13:36.645Z,980.4
2018-06-15T00:14:37.793Z,980.4
2018-06-15T00:15:38.937Z,980.5
2018-06-15T00:16:40.236Z,980.5
2018-06-15T00:17:41.412Z,980.5
2018-06-15T00:18:42.540Z,980.5
2018-06-15T00:19:43.693Z,980.6
2018-06-15T00:20:44.859Z,980.5
2018-06-15T00:21:46.069Z,980.5
2018-06-15T00:22:47.280Z,980.5
2018-06-15T00:23:48.489Z,980.6
2018-06-15T00:24:49.617Z,980.4
2018-06-15T00:25:50.757Z,980.5
2018-06-15T00:26:52.168Z,980.5
2018-06-15T00:27:53.311Z,980.5
2018-06-15T00:28:54.477Z,980.6
2018-06-15T00:29:55.650Z,980.5
2018-06-15T00:30:56.807Z,980.5
2018-06-15T00:31:58.015Z,980.5
2018-06-15T00:32:59.221Z,980.5
2018-06-15T00:34:00.392Z,980.5
2018-06-15T00:35:01.590Z,980.5
2018-06-15T00:36:03.045Z,980.3
2018-06-15T00:37:04.259Z,980.5
2018-06-15T00:38:05.404Z,980.5
2018-06-15T00:39:06.602Z,980.5
2018-06-15T00:40:07.751Z,980.5
2018-06-15T00:41:08.908Z,980.5
2018-06-15T00:42:10.115Z,980.5
2018-06-15T00:43:11.269Z,980.5
2018-06-15T00:44:12.442Z,980.3
2018-06-15T00:45:13.631Z,980.4
2018-06-15T00:46:14.774Z,980.4
2018-06-15T00:47:16.599Z,980.4
2018-06-15T00:48:17.750Z,980.4
2018-06-15T00:49:18.904Z,980.5
2018-06-15T00:50:20.034Z,980.5
2018-06-15T00:51:21.325Z,980.4
2018-06-15T00:52:22.541Z,980.4
2018-06-15T00:53:27.814Z,980.4
2018-06-15T00:54:28.965Z,980.4
2018-06-15T00:55:30.165Z,980.4
2018-06-15T00:56:31.338Z,980.4
2018-06-15T00:57:32.953Z,980.4
2018-06-15T00:58:34.142Z,980.4
2018-06-15T00:59:35.318Z,980.4
2018-06-15T01:00:36.462Z,980.4
2018-06-15T01:01:37.612Z,980.4
2018-06-15T01:02:38.805Z,980.3
2018-06-15T01:03:39.956Z,980.4
2018-06-15T01:04:41.076Z,980.4
2018-06-15T01:05:42.220Z,980.4
2018-06-15T01:06:43.382Z,980.4
2018-06-15T01:07:44.572Z,980.4
2018-06-15T01:08:45.704Z,980.4
2018-06-15T01:09:46.903Z,980.4
2018-06-15T01:10:48.082Z,980.4
2018-06-15T01:11:49.234Z,980.3
2018-06-15T01:12:50.442Z,980.4
2018-06-15T01:13:51.604Z,980.4
2018-06-15T01:14:52.754Z,980.4
2018-06-15T01:15:53.912Z,980.4
2018-06-15T01:16:55.074Z,980.4
2018-06-15T01:17:56.300Z,980.4
2018-06-15T01:18:57.458Z,980.4
2018-06-15T01:19:58.603Z,980.3
2018-06-15T01:20:59.733Z,980.4
2018-06-15T01:22:00.860Z,980.3
2018-06-15T01:23:02.054Z,980.3
2018-06-15T01:24:03.189Z,980.4
2018-06-15T01:25:04.346Z,980.4
2018-06-15T01:26:05.489Z,980.4
2018-06-15T01:27:06.634Z,980.4
2018-06-15T01:28:08.509Z,980.3
2018-06-15T01:29:09.750Z,980.3
2018-06-15T01:30:10.865Z,980.3
2018-06-15T01:31:11.986Z,980.3
2018-06-15T01:32:13.122Z,980.3
2018-06-15T01:33:14.293Z,980.3
2018-06-15T01:34:15.445Z,980.3
2018-06-15T01:35:16.561Z,980.3
2018-06-15T01:36:17.726Z,980.3
2018-06-15T01:37:18.892Z,980.3
2018-06-15T01:38:20.112Z,980.3
2018-06-15T01:39:21.298Z,980.3
2018-06-15T01:40:22.445Z,980.1
2018-06-15T01:41:23.603Z,980.2
2018-06-15T01:42:24.717Z,980.2
2018-06-15T01:43:26.173Z,980.2
2018-06-15T01:44:27.354Z,980.3
2018-06-15T01:45:28.524Z,980.2
2018-06-15T01:46:29.714Z,980.2
2018-06-15T01:47:30.856Z,980.2
2018-06-15T01:48:32.020Z,980.2
2018-06-15T01:49:33.194Z,980.2
2018-06-15T01:50:34.338Z,980.2
2018-06-15T01:51:35.507Z,980.3
2018-06-15T01:52:36.644Z,980.2
2018-06-15T01:53:37.828Z,980.2
2018-06-15T01:54:38.977Z,980.3
2018-06-15T01:55:40.145Z,980.3
2018-06-15T01:56:41.308Z,980.3
2018-06-15T01:57:42.431Z,980.3
2018-06-15T01:58:43.640Z,980.3
2018-06-15T01:59:44.836Z,980.3
2018-06-15T02:00:45.990Z,980.3
2018-06-15T02:01:47.160Z,980.3
2018-06-15T02:02:48.318Z,980.3
2018-06-15T02:03:49.516Z,980.3
2018-06-15T02:04:50.660Z,980.3
2018-06-15T02:05:51.800Z,980.3
2018-06-15T02:06:52.920Z,980.2
2018-06-15T02:07:54.342Z,980.2
2018-06-15T02:08:56.566Z,979.9
2018-06-15T02:09:58.557Z,980.2
2018-06-15T02:10:59.708Z,980.3
2018-06-15T02:12:00.893Z,980.2
2018-06-15T02:13:02.111Z,980.2
2018-06-15T02:14:03.322Z,980
2018-06-15T02:15:04.481Z,980.3
2018-06-15T02:16:05.610Z,980.3
2018-06-15T02:17:06.755Z,980.3
2018-06-15T02:18:07.905Z,980.3
2018-06-15T02:19:09.088Z,980.3
2018-06-15T02:20:10.245Z,980.3
2018-06-15T02:21:11.405Z,980.3
2018-06-15T02:22:12.582Z,980.3
2018-06-15T02:23:13.727Z,980.3
2018-06-15T02:24:14.920Z,980.2
2018-06-15T02:25:16.381Z,980.2
2018-06-15T02:26:20.251Z,980
2018-06-15T02:27:21.442Z,980.2
2018-06-15T02:28:22.567Z,980.2
2018-06-15T02:29:24.078Z,980.3
2018-06-15T02:30:25.222Z,980.2
2018-06-15T02:31:26.387Z,980.3
2018-06-15T02:32:27.557Z,980.3
2018-06-15T02:33:28.723Z,980.3
2018-06-15T02:34:29.928Z,980.3
2018-06-15T02:35:31.067Z,980.2
2018-06-15T02:36:32.197Z,980.2
2018-06-15T02:37:33.340Z,980.2
2018-06-15T02:38:34.494Z,980.2
2018-06-15T02:39:35.708Z,980.3
2018-06-15T02:40:36.853Z,980.2
2018-06-15T02:41:37.998Z,980.3
2018-06-15T02:42:39.122Z,980.3
2018-06-15T02:43:40.269Z,980.3
2018-06-15T02:44:41.761Z,980.4
2018-06-15T02:45:42.939Z,980.3
2018-06-15T02:46:44.064Z,980.3
2018-06-15T02:47:45.239Z,980.3
2018-06-15T02:48:46.395Z,980.3
2018-06-15T02:49:47.727Z,980.3
2018-06-15T02:50:49.146Z,980.3
2018-06-15T02:51:50.271Z,980.4
2018-06-15T02:52:51.413Z,980.3
2018-06-15T02:53:52.550Z,980.4
2018-06-15T02:54:53.756Z,980.3
2018-06-15T02:55:54.917Z,980.3
2018-06-15T02:56:56.042Z,980.3
2018-06-15T02:57:57.245Z,980.3
2018-06-15T02:58:58.397Z,980.3
2018-06-15T02:59:59.803Z,980.3
2018-06-15T03:01:00.927Z,980.4
2018-06-15T03:02:02.078Z,980.3
2018-06-15T03:03:03.229Z,980.4
2018-06-15T03:04:04.379Z,980.4
2018-06-15T03:05:05.604Z,980.4
2018-06-15T03:06:06.720Z,980.4
2018-06-15T03:07:07.896Z,980.4
2018-06-15T03:08:09.027Z,980.4
2018-06-15T03:09:10.155Z,980.4
2018-06-15T03:10:11.308Z,980.4
2018-06-15T03:11:12.451Z,980.3
2018-06-15T03:12:13.576Z,980.4
2018-06-15T03:13:14.712Z,980.2
2018-06-15T03:14:15.853Z,980.2
2018-06-15T03:15:17.081Z,980.4
2018-06-15T03:16:18.207Z,980.4
2018-06-15T03:17:20.157Z,980.4
2018-06-15T03:18:21.321Z,980.4
2018-06-15T03:19:22.480Z,980.4
2018-06-15T03:20:23.638Z,980.4
2018-06-15T03:21:24.780Z,980.3
2018-06-15T03:22:25.906Z,980.3
2018-06-15T03:23:27.063Z,980.3
2018-06-15T03:24:28.209Z,980.4
2018-06-15T03:25:29.374Z,980.4
2018-06-15T03:26:30.516Z,980.4
2018-06-15T03:27:34.402Z,980.4
2018-06-15T03:28:35.536Z,980.4
2018-06-15T03:29:36.669Z,980.4
2018-06-15T03:30:38.112Z,980.4
2018-06-15T03:31:39.236Z,980.4
2018-06-15T03:32:40.369Z,980.4
2018-06-15T03:33:41.786Z,980.4
2018-06-15T03:34:42.956Z,980.5
2018-06-15T03:35:44.128Z,980.5
2018-06-15T03:36:45.672Z,980.4
2018-06-15T03:37:46.820Z,980.5
2018-06-15T03:38:47.996Z,980.5
2018-06-15T03:39:49.120Z,980.5
2018-06-15T03:40:50.290Z,980.4
2018-06-15T03:41:51.408Z,980.4
2018-06-15T03:42:52.559Z,980.5
2018-06-15T03:43:54.184Z,980.5
2018-06-15T03:44:55.308Z,980.5
2018-06-15T03:45:56.489Z,980.5
2018-06-15T03:46:57.673Z,980.5
2018-06-15T03:47:58.833Z,980.5
2018-06-15T03:48:59.989Z,980.5
2018-06-15T03:50:01.158Z,980.3
2018-06-15T03:51:02.314Z,980.5
2018-06-15T03:52:03.470Z,980.5
2018-06-15T03:53:04.612Z,980.4
2018-06-15T03:54:05.748Z,980.5
2018-06-15T03:55:06.870Z,980.5
2018-06-15T03:56:08.092Z,980.5
2018-06-15T03:57:09.263Z,980.6
2018-06-15T03:58:10.388Z,980.6
2018-06-15T03:59:13.534Z,980.5
2018-06-15T04:00:14.861Z,980.6
2018-06-15T04:01:16.348Z,980.6
2018-06-15T04:02:17.517Z,980.7
2018-06-15T04:03:18.775Z,980.7
2018-06-15T04:04:19.912Z,980.7
2018-06-15T04:05:21.053Z,980.7
2018-06-15T04:06:22.250Z,980.7
2018-06-15T04:07:23.433Z,980.7
2018-06-15T04:08:24.591Z,980.7
2018-06-15T04:09:25.720Z,980.6
2018-06-15T04:10:26.864Z,980.8
2018-06-15T04:11:28.048Z,980.7
2018-06-15T04:12:29.252Z,980.8
2018-06-15T04:13:30.470Z,980.8
2018-06-15T04:14:31.603Z,980.8
2018-06-15T04:15:32.805Z,980.8
2018-06-15T04:16:34.030Z,980.9
2018-06-15T04:17:35.170Z,980.9
2018-06-15T04:18:36.369Z,980.9
2018-06-15T04:19:37.545Z,980.9
2018-06-15T04:20:38.744Z,980.7
2018-06-15T04:21:41.852Z,980.8
2018-06-15T04:22:43.015Z,980.8
2018-06-15T04:23:44.193Z,980.9
2018-06-15T04:24:45.376Z,980.9
2018-06-15T04:25:46.532Z,981
2018-06-15T04:26:47.732Z,981
2018-06-15T04:27:48.945Z,981
2018-06-15T04:28:50.088Z,980.9
2018-06-15T04:29:51.234Z,981
2018-06-15T04:30:52.354Z,981
2018-06-15T04:31:53.832Z,981
2018-06-15T04:32:54.970Z,981
2018-06-15T04:33:56.121Z,981
2018-06-15T04:34:57.307Z,981.1
2018-06-15T04:35:58.540Z,981
2018-06-15T04:36:59.738Z,981.1
2018-06-15T04:38:00.920Z,981
2018-06-15T04:39:02.078Z,981
2018-06-15T04:40:03.266Z,981
2018-06-15T04:41:04.465Z,981.1
2018-06-15T04:42:05.682Z,981.2
2018-06-15T04:43:06.841Z,981.2
2018-06-15T04:44:13.275Z,981.3
2018-06-15T04:45:14.389Z,981.1
2018-06-15T04:46:15.542Z,981.1
2018-06-15T04:47:16.752Z,981
2018-06-15T04:48:17.898Z,981.1
2018-06-15T04:49:19.098Z,981.1
2018-06-15T04:50:20.273Z,980.9
2018-06-15T04:51:21.690Z,981.1
2018-06-15T04:52:22.920Z,981.2
2018-06-15T04:53:24.112Z,981.2
2018-06-15T04:54:25.235Z,981.1
2018-06-15T04:55:26.393Z,981.2
2018-06-15T04:56:27.527Z,981.1
2018-06-15T04:57:28.731Z,981.2
2018-06-15T04:58:29.902Z,981.1
2018-06-15T04:59:31.085Z,981.2
2018-06-15T05:00:32.300Z,981.3
2018-06-15T05:01:33.473Z,981.2
2018-06-15T05:02:35.091Z,981.2
2018-06-15T05:03:36.241Z,981.2
2018-06-15T05:04:37.401Z,981.3
2018-06-15T05:05:38.620Z,981.2
2018-06-15T05:06:39.795Z,981.2
2018-06-15T05:07:41.257Z,981.1
2018-06-15T05:08:42.397Z,981.3
2018-06-15T05:09:43.576Z,981.4
2018-06-15T05:10:44.782Z,981.2
2018-06-15T05:11:45.946Z,981.2
2018-06-15T05:12:47.134Z,981.3
2018-06-15T05:13:48.312Z,981.3
2018-06-15T05:14:49.473Z,981.4
2018-06-15T05:15:50.714Z,981.4
2018-06-15T05:16:51.868Z,981.4
2018-06-15T05:17:53.111Z,981.4
2018-06-15T05:18:54.286Z,981.4
2018-06-15T05:19:55.432Z,981.4
2018-06-15T05:20:56.585Z,981.4
2018-06-15T05:21:57.740Z,981.5
2018-06-15T05:22:58.949Z,981.4
2018-06-15T05:24:00.151Z,981.4
2018-06-15T05:25:01.344Z,981.3
2018-06-15T05:26:02.542Z,981.4
2018-06-15T05:27:04.000Z,981.5
2018-06-15T05:28:05.994Z,981.4
2018-06-15T05:29:07.218Z,981.4
2018-06-15T05:30:08.405Z,981.6
2018-06-15T05:31:09.600Z,981.6
2018-06-15T05:32:10.839Z,981.9
2018-06-15T05:33:12.097Z,982.1
2018-06-15T05:34:13.261Z,982.1
2018-06-15T05:35:14.407Z,982.1
2018-06-15T05:36:15.816Z,982.1
2018-06-15T05:37:17.353Z,982
2018-06-15T05:38:18.532Z,982
2018-06-15T05:39:19.772Z,982.1
2018-06-15T05:40:21.002Z,982
2018-06-15T05:41:22.175Z,982
2018-06-15T05:42:23.437Z,982
2018-06-15T05:43:24.651Z,982
2018-06-15T05:44:25.786Z,981.9
2018-06-15T05:45:26.956Z,981.9
2018-06-15T05:46:28.089Z,982
2018-06-15T05:47:29.252Z,981.9
2018-06-15T05:48:30.524Z,981.9
2018-06-15T05:49:31.718Z,981.9
2018-06-15T05:50:32.865Z,981.9
2018-06-15T05:51:34.024Z,981.9
2018-06-15T05:52:35.182Z,982
2018-06-15T05:53:36.387Z,982
2018-06-15T05:54:37.582Z,982
2018-06-15T05:55:38.736Z,982
2018-06-15T05:56:44.443Z,982
2018-06-15T05:57:45.590Z,982
2018-06-15T05:58:46.794Z,982
2018-06-15T05:59:48.066Z,981.9
2018-06-15T06:00:49.299Z,982.1
2018-06-15T06:01:50.481Z,982.1
2018-06-15T06:02:51.638Z,982.1
2018-06-15T06:03:52.891Z,982.1
2018-06-15T06:04:54.026Z,982.1
2018-06-15T06:05:55.181Z,981.9
2018-06-15T06:06:56.355Z,981.9
2018-06-15T06:07:57.549Z,982
2018-06-15T06:08:58.764Z,982.1
2018-06-15T06:09:59.943Z,982.1
2018-06-15T06:11:01.138Z,982.1
2018-06-15T06:12:02.364Z,982.1
2018-06-15T06:13:03.626Z,982.1
2018-06-15T06:14:04.839Z,982.1
2018-06-15T06:15:06.024Z,982.2
2018-06-15T06:16:07.203Z,982.2
2018-06-15T06:17:08.734Z,982.2
2018-06-15T06:18:09.994Z,982.2
2018-06-15T06:19:11.338Z,982.1
2018-06-15T06:20:12.563Z,982.2
2018-06-15T06:21:13.835Z,982.2
2018-06-15T06:22:14.986Z,982.1
2018-06-15T06:23:16.132Z,982.2
2018-06-15T06:24:17.420Z,982.2
2018-06-15T06:25:18.588Z,982.2
2018-06-15T06:26:19.820Z,982
2018-06-15T06:27:21.040Z,982.2
2018-06-15T06:28:22.262Z,982.2
2018-06-15T06:29:23.474Z,982.2
2018-06-15T06:30:24.785Z,982.1
2018-06-15T06:31:25.969Z,982.3
2018-06-15T06:32:27.174Z,982.2
2018-06-15T06:33:28.375Z,982.2
2018-06-15T06:34:29.874Z,982.2
2018-06-15T06:35:31.102Z,982.3
2018-06-15T06:36:32.282Z,982.1
2018-06-15T06:37:33.492Z,982.3
2018-06-15T06:38:34.672Z,982.3
2018-06-15T06:39:35.892Z,982.2
2018-06-15T06:40:37.077Z,982.3
2018-06-15T06:41:38.238Z,982.3
2018-06-15T06:42:39.488Z,982.3
2018-06-15T06:43:40.629Z,982.3
2018-06-15T06:44:41.863Z,982.3
2018-06-15T06:45:43.074Z,982.4
2018-06-15T06:46:45.618Z,982.3
2018-06-15T06:47:46.743Z,982.3
2018-06-15T06:48:47.961Z,982.3
2018-06-15T06:49:49.385Z,982.4
2018-06-15T06:50:50.568Z,982.4
2018-06-15T06:51:51.745Z,982.3
2018-06-15T06:52:52.948Z,982.4
2018-06-15T06:53:54.217Z,982.4
2018-06-15T06:54:55.431Z,982.4
2018-06-15T06:55:56.791Z,982.2
2018-06-15T06:56:57.996Z,982.4
2018-06-15T06:57:59.273Z,982.4
2018-06-15T06:59:00.526Z,982.4
2018-06-15T07:00:02.017Z,982.4
2018-06-15T07:01:03.227Z,982.4
2018-06-15T07:02:05.455Z,982.4
2018-06-15T07:03:06.647Z,982.4
2018-06-15T07:04:07.837Z,982.4
2018-06-15T07:05:09.242Z,982.4
2018-06-15T07:06:11.156Z,982.5
2018-06-15T07:07:12.521Z,982.4
2018-06-15T07:08:13.756Z,982.4
2018-06-15T07:09:14.994Z,982.4
2018-06-15T07:10:16.188Z,982.5
2018-06-15T07:11:18.867Z,982.5
2018-06-15T07:12:20.177Z,982.5
2018-06-15T07:13:30.823Z,982.3
2018-06-15T07:14:48.343Z,982.5
2018-06-15T07:15:49.637Z,982.5
2018-06-15T07:16:50.765Z,982.5
2018-06-15T07:17:51.968Z,982.5
2018-06-15T07:18:53.151Z,982.4
2018-06-15T07:19:54.361Z,982.4
2018-06-15T07:20:55.583Z,982.3
2018-06-15T07:21:59.992Z,982.5
2018-06-15T07:23:01.531Z,982.4
2018-06-15T07:24:02.816Z,982.4
2018-06-15T07:25:03.985Z,982.4
2018-06-15T07:26:05.199Z,982.4
2018-06-15T07:27:06.484Z,982.4
2018-06-15T07:28:08.493Z,982.4
2018-06-15T07:29:09.705Z,982.4
2018-06-15T07:30:10.892Z,982.4
2018-06-15T07:31:12.138Z,982.4
2018-06-15T07:32:13.346Z,982.3
2018-06-15T07:33:14.755Z,982.4
2018-06-15T07:34:16.005Z,982.3
2018-06-15T07:35:17.256Z,982.4
2018-06-15T07:36:18.711Z,982.4
2018-06-15T07:37:20.435Z,982.3
2018-06-15T07:38:21.661Z,982.5
2018-06-15T07:39:22.895Z,982.5
2018-06-15T07:40:24.059Z,982.3
2018-06-15T07:41:25.338Z,982.5
2018-06-15T07:42:26.852Z,982.5
2018-06-15T07:43:28.453Z,982.6
2018-06-15T07:44:29.670Z,982.5
2018-06-15T07:45:31.237Z,982.5
2018-06-15T07:46:32.486Z,982.5
2018-06-15T07:47:33.695Z,982.6
2018-06-15T07:48:35.109Z,982.7
2018-06-15T07:49:36.311Z,982.7
2018-06-15T07:50:37.475Z,982.6
2018-06-15T07:51:38.686Z,982.6
2018-06-15T07:52:40.167Z,982.7
2018-06-15T07:54:50.638Z,982.7
2018-06-15T07:55:51.891Z,982.7
2018-06-15T07:56:53.088Z,982.7
2018-06-15T07:57:54.257Z,982.8
2018-06-15T07:58:55.455Z,982.7
2018-06-15T07:59:56.636Z,982.7
2018-06-15T08:00:57.788Z,982.7
2018-06-15T08:01:59.017Z,982.8
2018-06-15T08:03:00.272Z,982.6
2018-06-15T08:04:01.657Z,982.7
2018-06-15T08:05:02.876Z,982.7
2018-06-15T08:06:04.129Z,982.7
2018-06-15T08:07:05.568Z,982.7
2018-06-15T08:08:06.856Z,982.6
2018-06-15T08:09:08.112Z,982.7
2018-06-15T08:10:09.325Z,982.8
2018-06-15T08:11:10.582Z,982.7
2018-06-15T08:12:11.884Z,982.8
2018-06-15T08:13:13.026Z,982.7
2018-06-15T08:14:14.229Z,982.8
2018-06-15T08:15:16.449Z,982.7
2018-06-15T08:16:22.665Z,982.6
2018-06-15T08:17:23.965Z,982.8
2018-06-15T08:18:25.149Z,982.8
2018-06-15T08:19:26.582Z,982.8
2018-06-15T08:20:27.741Z,982.9
2018-06-15T08:21:28.938Z,982.8
2018-06-15T08:22:30.223Z,982.8
2018-06-15T08:23:31.428Z,982.7
2018-06-15T08:24:32.899Z,982.7
2018-06-15T08:25:34.087Z,982.8
2018-06-15T08:26:35.228Z,982.8
2018-06-15T08:27:36.520Z,982.8
2018-06-15T08:28:37.798Z,982.8
2018-06-15T08:29:39.060Z,982.6
2018-06-15T08:30:40.279Z,982.9
2018-06-15T08:31:41.506Z,982.9
2018-06-15T08:32:42.747Z,982.7
2018-06-15T08:33:43.921Z,982.8
2018-06-15T08:34:45.209Z,982.8
2018-06-15T08:35:46.442Z,982.7
2018-06-15T08:36:47.631Z,982.6
2018-06-15T08:37:49.322Z,982.8
2018-06-15T08:38:50.582Z,982.8
2018-06-15T08:39:51.812Z,982.8
2018-06-15T08:40:52.985Z,982.8
2018-06-15T08:41:54.153Z,982.9
2018-06-15T08:42:55.433Z,982.9
2018-06-15T08:43:56.650Z,982.8
2018-06-15T08:44:57.902Z,982.8
2018-06-15T08:45:59.090Z,982.9
2018-06-15T08:47:00.321Z,982.7
2018-06-15T08:48:01.585Z,982.9
2018-06-15T08:49:02.761Z,982.7
2018-06-15T08:50:03.985Z,982.8
2018-06-15T08:51:05.193Z,982.8
2018-06-15T08:52:06.356Z,982.7
2018-06-15T08:53:08.636Z,982.8
2018-06-15T08:54:09.831Z,982.9
2018-06-15T08:55:11.064Z,982.9
2018-06-15T08:56:12.276Z,982.9
2018-06-15T08:57:13.419Z,982.9
2018-06-15T08:58:14.625Z,982.9
2018-06-15T08:59:15.833Z,982.8
2018-06-15T09:00:17.055Z,982.9
2018-06-15T09:01:18.277Z,982.7
2018-06-15T09:02:19.484Z,982.8
2018-06-15T09:03:20.904Z,982.8
2018-06-15T09:04:22.106Z,982.9
2018-06-15T09:05:23.286Z,982.8
2018-06-15T09:06:25.059Z,982.8
2018-06-15T09:07:26.267Z,982.8
2018-06-15T09:08:27.536Z,982.7
2018-06-15T09:09:28.774Z,982.8
2018-06-15T09:10:29.977Z,982.8
2018-06-15T09:11:31.150Z,982.7
2018-06-15T09:12:32.319Z,982.7
2018-06-15T09:13:33.542Z,982.9
2018-06-15T09:14:34.707Z,982.8
2018-06-15T09:15:35.879Z,982.7
2018-06-15T09:16:37.069Z,982.7
2018-06-15T09:17:38.302Z,982.8
2018-06-15T09:18:39.574Z,982.8
2018-06-15T09:19:40.843Z,982.8
2018-06-15T09:20:42.031Z,982.8
2018-06-15T09:21:43.170Z,982.7
2018-06-15T09:22:44.406Z,982.8
2018-06-15T09:23:45.638Z,982.8
2018-06-15T09:24:46.803Z,982.8
2018-06-15T09:25:48.005Z,982.7
2018-06-15T09:26:49.264Z,982.6
2018-06-15T09:27:50.542Z,982.8
2018-06-15T09:28:51.853Z,982.7
2018-06-15T09:29:53.075Z,982.7
2018-06-15T09:30:54.328Z,982.7
2018-06-15T09:31:55.503Z,982.7
2018-06-15T09:32:56.664Z,982.7
2018-06-15T09:33:57.876Z,982.8
2018-06-15T09:34:59.030Z,982.7
2018-06-15T09:36:00.209Z,982.7
2018-06-15T09:37:01.452Z,982.7
2018-06-15T09:38:02.670Z,982.7
2018-06-15T09:39:04.440Z,982.5
2018-06-15T09:40:05.627Z,982.7
2018-06-15T09:41:06.833Z,982.7
2018-06-15T09:42:08.030Z,982.7
2018-06-15T09:43:09.234Z,982.7
2018-06-15T09:44:10.498Z,982.7
2018-06-15T09:45:11.710Z,982.8
2018-06-15T09:46:12.992Z,982.8
2018-06-15T09:47:14.140Z,982.8
2018-06-15T09:48:15.343Z,982.8
2018-06-15T09:49:16.580Z,982.8
2018-06-15T09:50:17.780Z,982.9
2018-06-15T09:51:19.001Z,982.8
2018-06-15T09:52:20.134Z,982.8
2018-06-15T09:53:21.316Z,982.6
2018-06-15T09:54:22.582Z,982.8
2018-06-15T09:55:23.833Z,982.8
2018-06-15T09:56:25.290Z,982.8
2018-06-15T09:57:26.503Z,982.8
2018-06-15T09:58:27.728Z,982.8
2018-06-15T09:59:28.942Z,982.8
2018-06-15T10:00:30.151Z,982.8
2018-06-15T10:01:31.346Z,982.8
2018-06-15T10:02:32.506Z,982.8
2018-06-15T10:03:33.679Z,982.8
2018-06-15T10:04:35.012Z,982.7
2018-06-15T10:05:36.171Z,982.8
2018-06-15T10:06:37.357Z,982.6
2018-06-15T10:07:38.517Z,982.8
2018-06-15T10:08:39.699Z,982.8
2018-06-15T10:09:41.237Z,982.7
2018-06-15T10:10:42.565Z,982.8
2018-06-15T10:11:43.749Z,982.8
2018-06-15T10:12:44.976Z,982.8
2018-06-15T10:13:46.207Z,982.7
2018-06-15T10:14:49.616Z,982.7
2018-06-15T10:15:50.870Z,982.8
2018-06-15T10:16:52.084Z,982.8
2018-06-15T10:17:53.349Z,982.8
2018-06-15T10:18:54.532Z,982.8
2018-06-15T10:19:55.751Z,982.8
2018-06-15T10:20:57.132Z,982.8
2018-06-15T10:21:58.583Z,982.8
2018-06-15T10:22:59.808Z,982.7
2018-06-15T10:24:01.246Z,982.8
2018-06-15T10:25:02.525Z,982.7
2018-06-15T10:26:04.656Z,982.8
2018-06-15T10:27:10.758Z,982.6
2018-06-15T10:28:12.054Z,982.8
2018-06-15T10:29:17.227Z,982.8
2018-06-15T10:30:18.568Z,982.7
2018-06-15T10:31:19.756Z,982.7
2018-06-15T10:32:21.417Z,982.7
2018-06-15T10:33:23.632Z,982.8
2018-06-15T10:34:24.939Z,982.7
2018-06-15T10:35:26.291Z,982.8
2018-06-15T10:36:27.850Z,982.8
2018-06-15T10:37:28.997Z,982.7
2018-06-15T10:38:30.179Z,982.8
2018-06-15T10:39:31.538Z,982.9
2018-06-15T10:40:33.134Z,982.9
2018-06-15T10:41:34.414Z,982.9
2018-06-15T10:42:35.673Z,983
2018-06-15T10:43:36.919Z,982.8
2018-06-15T10:44:41.679Z,982.9
2018-06-15T10:45:45.070Z,982.9
2018-06-15T10:46:46.554Z,982.7
2018-06-15T10:47:48.008Z,982.8
2018-06-15T10:48:49.261Z,982.8
2018-06-15T10:49:50.539Z,982.8
2018-06-15T10:50:51.852Z,982.8
2018-06-15T10:51:53.120Z,982.8
2018-06-15T10:52:54.544Z,982.8
2018-06-15T10:53:55.761Z,982.8
2018-06-15T10:54:57.125Z,982.8
2018-06-15T10:56:00.651Z,982.8
2018-06-15T10:57:02.259Z,982.7
2018-06-15T10:58:04.310Z,982.8
2018-06-15T10:59:05.657Z,982.7
2018-06-15T11:00:07.128Z,982.7
2018-06-15T11:01:08.460Z,982.6
2018-06-15T11:02:14.235Z,982.8
2018-06-15T11:03:15.646Z,982.9
2018-06-15T11:04:18.963Z,982.8
2018-06-15T11:05:20.316Z,982.7
2018-06-15T11:06:21.935Z,982.7
2018-06-15T11:07:23.242Z,982.7
2018-06-15T11:08:24.474Z,982.6
2018-06-15T11:09:25.834Z,982.6
2018-06-15T11:10:28.522Z,982.7
2018-06-15T11:11:29.801Z,982.7
2018-06-15T11:12:32.475Z,982.6
2018-06-15T11:13:33.934Z,982.6
2018-06-15T11:14:35.252Z,982.6
2018-06-15T11:15:36.594Z,982.6
2018-06-15T11:16:40.387Z,982.6
2018-06-15T11:17:41.955Z,982.6
2018-06-15T11:18:43.192Z,982.5
2018-06-15T11:19:44.461Z,982.5
2018-06-15T11:20:45.821Z,982.6
2018-06-15T11:21:51.327Z,982.6
2018-06-15T11:22:53.231Z,982.6
2018-06-15T11:23:54.537Z,982.5
2018-06-15T11:24:56.159Z,982.6
2018-06-15T11:25:57.447Z,982.6
2018-06-15T11:26:58.900Z,982.4
2018-06-15T11:28:00.110Z,982.6
2018-06-15T11:29:01.920Z,982.5
2018-06-15T11:30:06.737Z,982.5
2018-06-15T11:31:08.116Z,982.6
2018-06-15T11:32:09.643Z,982.6
2018-06-15T11:33:11.278Z,982.6
2018-06-15T11:34:12.705Z,982.3
2018-06-15T11:35:13.985Z,982.5
2018-06-15T11:36:22.406Z,982.6
2018-06-15T11:37:32.447Z,982.6
2018-06-15T11:38:34.548Z,982.6
2018-06-15T11:39:35.850Z,982.6
2018-06-15T11:40:37.084Z,982.5
2018-06-15T11:41:38.412Z,982.6
2018-06-15T11:42:39.891Z,982.5
2018-06-15T11:43:41.232Z,982.5
2018-06-15T11:44:42.725Z,982.4
2018-06-15T11:45:49.043Z,982.5
2018-06-15T11:46:50.391Z,982.5
2018-06-15T11:47:51.759Z,982.5
2018-06-15T11:48:52.992Z,982.5
2018-06-15T11:49:54.234Z,982.5
2018-06-15T11:50:55.489Z,982.6
2018-06-15T11:51:56.811Z,982.6
2018-06-15T11:52:58.260Z,982.4
2018-06-15T11:53:59.499Z,982.5
2018-06-15T11:55:00.880Z,982.5
2018-06-15T11:56:02.274Z,982.5
2018-06-15T11:57:03.521Z,982.5
2018-06-15T11:58:04.897Z,982.5
2018-06-15T11:59:06.149Z,982.5
2018-06-15T12:00:07.385Z,982.5
2018-06-15T12:01:09.029Z,982.5
2018-06-15T12:02:10.845Z,982.4
2018-06-15T12:03:16.324Z,982.4
2018-06-15T12:04:17.487Z,982.3
2018-06-15T12:05:19.535Z,982.3
2018-06-15T12:06:20.990Z,982.4
2018-06-15T12:07:22.406Z,982.3
2018-06-15T12:08:23.672Z,982.2
2018-06-15T12:09:25.375Z,982.3
2018-06-15T12:10:26.740Z,982.3
2018-06-15T12:11:28.250Z,982.3
2018-06-15T12:12:29.969Z,982.4
2018-06-15T12:13:31.523Z,982.5
2018-06-15T12:14:32.805Z,982.6
2018-06-15T12:15:34.126Z,982.5
2018-06-15T12:16:35.703Z,982.6
2018-06-15T12:17:37.075Z,982.5
2018-06-15T12:18:38.359Z,982.4
2018-06-15T12:19:39.605Z,982.3
2018-06-15T12:20:40.950Z,982.4
2018-06-15T12:21:42.406Z,982.3
2018-06-15T12:22:43.622Z,982.3
2018-06-15T12:23:45.279Z,982.3
2018-06-15T12:24:46.560Z,982.5
2018-06-15T12:25:47.718Z,982.5
2018-06-15T12:26:48.923Z,982.3
2018-06-15T12:27:50.483Z,982.3
2018-06-15T12:28:52.165Z,982.1
2018-06-15T12:29:53.383Z,982.1
2018-06-15T12:30:54.591Z,982.1
2018-06-15T12:31:55.951Z,982.1
2018-06-15T12:32:57.392Z,982.3
2018-06-15T12:33:58.712Z,982.5
2018-06-15T12:35:00.466Z,982.3
2018-06-15T12:36:02.072Z,982.1
2018-06-15T12:37:03.854Z,982
2018-06-15T12:38:05.106Z,982
2018-06-15T12:39:06.640Z,982.1
2018-06-15T12:40:08.196Z,982.1
2018-06-15T12:41:09.913Z,982.1
2018-06-15T12:42:12.245Z,982
2018-06-15T12:43:14.581Z,982.1
2018-06-15T12:44:16.271Z,982.3
2018-06-15T12:45:17.532Z,982.2
2018-06-15T12:46:18.799Z,982.1
2018-06-15T12:47:20.008Z,982.1
2018-06-15T12:48:21.373Z,982.1
2018-06-15T12:49:22.799Z,982
2018-06-15T12:50:24.276Z,982
2018-06-15T12:51:25.896Z,982
2018-06-15T12:52:27.310Z,982.1
2018-06-15T12:53:28.764Z,982
2018-06-15T12:54:31.604Z,981.9
2018-06-15T12:55:33.389Z,981.9
2018-06-15T12:56:34.807Z,981.9
2018-06-15T12:57:36.320Z,981.8
2018-06-15T12:58:37.629Z,981.8
2018-06-15T12:59:38.987Z,981.8
2018-06-15T13:00:40.364Z,981.9
2018-06-15T13:01:42.026Z,981.9
2018-06-15T13:02:43.429Z,981.9
2018-06-15T13:03:44.931Z,981.9
2018-06-15T13:04:48.638Z,981.7
2018-06-15T13:05:50.028Z,981.8
2018-06-15T13:06:51.221Z,981.7
2018-06-15T13:07:52.847Z,981.7
2018-06-15T13:08:54.320Z,981.6
2018-06-15T13:09:55.931Z,981.7
2018-06-15T13:10:57.463Z,981.7
2018-06-15T13:11:58.957Z,981.7
2018-06-15T13:13:00.344Z,981.6
2018-06-15T13:14:02.623Z,981.5
2018-06-15T13:15:05.362Z,981.6